Latest Weather Observations for Applethorpe

IDN60801

Issued at 4:03 pm EST Saturday 30 May 2015 (issued every 30 minutes, with the page automatically refreshed every 10 minutes)

About weather observations | Map of weather stations | Latest weather observations for NSW | Other Formats
Station Details ID: 041175 Name: APPLETHORPE Lat: -28.62 Lon: 151.95 Height: 871.6 m
Data from the previous 72 hours. | See also: Recent months at Applethorpe
Date/Time
EST
Temp
°C
App
Temp
°C
Dew
Point
Rel
Hum
%
Delta-T
°C
Wind Press
QNH
hPa
Press
MSL
hPa
Rain
since 9 am
mm
Dir
 
Spd
km/h
Gust
km/h
Spd
kts
Gust
kts
30/04:00pm 17.3 16.6 11.9 70 3.1 W 7 11 4 6 1021.6 1020.3 0.0
30/03:30pm 17.7 17.0 11.9 69 3.3 W 7 13 4 7 1021.6 1020.3 0.0
30/03:00pm 18.4 17.6 11.8 65 3.8 W 7 13 4 7 1021.7 1020.4 0.0
30/02:30pm 18.5 17.3 11.5 63 4.0 WSW 9 17 5 9 1021.7 1020.4 0.0
30/02:00pm 18.9 17.7 11.5 62 4.2 WNW 9 17 5 9 1021.8 1020.5 0.0
30/01:30pm 19.6 18.8 11.8 60 4.5 W 7 11 4 6 1021.9 1020.6 0.0
30/01:00pm 19.0 17.5 10.6 58 4.7 W 9 15 5 8 1022.3 1020.9 0.0
30/12:30pm 18.7 17.2 10.7 59 4.5 W 9 17 5 9 1022.8 1021.5 0.0
30/12:00pm 18.9 17.8 10.7 59 4.6 W 7 13 4 7 1023.1 1021.8 0.0
30/11:30am 18.3 16.0 10.6 61 4.3 W 13 22 7 12 1023.9 1022.6 0.0
30/11:00am 18.4 16.8 11.5 64 3.9 W 11 19 6 10 1024.1 1022.8 0.0
30/10:30am 18.0 17.5 12.1 68 3.4 W 6 11 3 6 1024.7 1023.4 0.0
30/10:00am 17.4 16.8 11.8 69 3.2 WNW 6 9 3 5 1024.7 1023.4 0.0
30/09:30am 16.6 16.0 12.2 75 2.5 W 7 11 4 6 1025.4 1024.1 0.0
30/09:00am 15.6 15.9 12.3 81 1.9 SW 2 7 1 4 1025.6 1024.4 0.0
30/08:30am 14.7 14.9 11.9 83 1.6 SSW 2 4 1 2 1025.5 1024.3 0.0
30/08:00am 13.6 14.3 12.2 91 0.8 CALM 0 2 0 1 1025.3 1024.0 0.0
30/07:30am 12.4 12.9 11.7 95 0.4 CALM 0 4 0 2 1024.9 1023.6 0.0
30/07:00am 12.2 12.2 11.3 94 0.5 WNW 2 4 1 2 1024.9 1023.6 0.0
30/06:30am 11.8 11.8 11.3 97 0.3 NNW 2 4 1 2 1024.7 1023.4 0.0
30/06:00am 11.3 11.6 10.9 97 0.2 CALM 0 0 0 0 1024.3 1023.0 0.0
30/05:30am 11.1 11.3 10.7 97 0.2 CALM 0 2 0 1 1024.2 1022.9 0.0
30/05:00am 10.6 10.7 10.2 97 0.2 CALM 0 0 0 0 1024.0 1022.7 0.0
30/04:30am 10.4 10.5 10.0 97 0.2 CALM 0 0 0 0 1023.7 1022.4 0.0
30/04:00am 10.4 10.5 10.0 97 0.2 CALM 0 0 0 0 1023.6 1022.3 0.0
30/03:30am 10.2 10.2 9.8 97 0.2 CALM 0 0 0 0 1023.8 1022.5 0.0
30/03:00am 10.0 9.9 9.6 97 0.2 CALM 0 0 0 0 1024.0 1022.7 0.0
30/02:30am 9.8 9.7 9.4 97 0.2 CALM 0 0 0 0 1024.1 1022.8 0.0
30/02:00am 10.2 10.1 9.6 96 0.3 CALM 0 0 0 0 1024.3 1023.0 0.0
30/01:30am 10.8 10.9 10.2 96 0.3 CALM 0 0 0 0 1024.4 1023.2 0.0
30/01:00am 10.8 10.9 10.2 96 0.3 CALM 0 0 0 0 1024.4 1023.2 0.0
30/12:30am 10.8 10.9 10.2 96 0.3 CALM 0 0 0 0 1024.8 1023.5 0.0
30/12:00am 10.7 10.8 10.1 96 0.3 CALM 0 0 0 0 1024.9 1023.6 0.0
 
Date/Time
EST
Temp
°C
App
Temp
°C
Dew
Point
Rel
Hum
%
Delta-T
°C
Wind Press
QNH
hPa
Press
MSL
hPa
Rain
since 9 am
mm
Dir
 
Spd
km/h
Gust
km/h
Spd
kts
Gust
kts
29/11:30pm 10.6 10.7 10.2 97 0.2 CALM 0 0 0 0 1025.1 1023.8 0.0
29/11:00pm 10.5 10.1 9.9 96 0.3 ENE 2 4 1 2 1025.2 1023.9 0.0
29/10:30pm 10.4 10.0 9.8 96 0.3 ENE 2 2 1 1 1025.9 1024.6 0.0
29/10:00pm 10.3 9.6 9.9 97 0.2 NE 4 4 2 2 1025.6 1024.4 0.0
29/09:30pm 10.0 9.9 9.6 97 0.2 CALM 0 0 0 0 1026.0 1024.7 0.0
29/09:00pm 9.7 9.6 9.3 97 0.2 CALM 0 2 0 1 1025.5 1024.3 0.0
29/08:30pm 9.9 9.4 9.5 97 0.2 ENE 2 4 1 2 1025.4 1024.1 0.0
29/08:00pm 9.9 9.8 9.3 96 0.3 CALM 0 0 0 0 1025.5 1024.3 0.0
29/07:30pm 10.6 10.3 10.0 96 0.3 NE 2 2 1 1 1025.4 1024.1 0.0
29/07:00pm 11.4 11.6 10.7 95 0.4 CALM 0 2 0 1 1025.2 1023.9 0.0
29/06:30pm 11.4 11.6 10.7 95 0.4 CALM 0 0 0 0 1025.0 1023.7 0.0
29/06:00pm 12.3 12.6 11.0 92 0.7 CALM 0 0 0 0 1024.9 1023.6 0.0
29/05:30pm 13.3 13.8 11.7 90 0.9 CALM 0 0 0 0 1024.6 1023.3 0.0
29/05:00pm 15.2 15.7 11.6 79 2.0 CALM 0 2 0 1 1024.4 1023.2 0.0
29/04:30pm 16.5 16.3 11.7 73 2.7 WSW 4 6 2 3 1024.4 1023.2 0.0
29/04:00pm 17.1 16.5 11.6 70 3.1 W 6 11 3 6 1024.3 1023.0 0.0
29/03:30pm 17.4 16.5 11.2 67 3.5 W 7 15 4 8 1024.3 1023.0 0.0
29/03:00pm 18.6 17.1 10.6 59 4.5 WNW 9 19 5 10 1024.2 1022.9 0.0
29/02:30pm 19.1 17.1 10.1 56 5.0 W 11 17 6 9 1024.2 1022.9 0.0
29/02:00pm 18.6 16.8 10.8 60 4.4 W 11 17 6 9 1024.2 1022.9 0.0
29/01:30pm 18.5 17.2 10.0 57 4.7 W 7 13 4 7 1023.9 1022.6 0.0
29/01:00pm 18.0 16.7 11.1 64 3.9 W 9 15 5 8 1024.4 1023.2 0.0
29/12:30pm 18.1 16.7 11.0 63 4.0 W 9 15 5 8 1024.8 1023.5 0.0
29/12:00pm 17.2 15.7 10.7 65 3.6 W 9 17 5 9 1025.0 1023.7 0.0
29/11:30am 17.6 16.1 10.6 63 3.9 W 9 15 5 8 1025.2 1023.9 0.0
29/11:00am 17.7 16.7 11.1 65 3.7 NNW 7 17 4 9 1025.7 1024.5 0.0
29/10:30am 16.8 16.2 11.7 72 2.9 WNW 6 13 3 7 1026.0 1024.7 0.0
29/10:00am 16.8 14.7 11.1 69 3.2 WNW 13 19 7 10 1026.7 1025.5 0.0
29/09:30am 16.1 15.2 11.5 74 2.6 NW 7 15 4 8 1026.5 1025.3 0.0
29/09:00am 15.5 15.0 12.0 79 2.0 NW 6 11 3 6 1026.2 1024.9 0.0
29/08:30am 14.0 13.9 12.2 89 1.0 NNW 4 9 2 5 1026.1 1024.8 0.0
29/08:00am 12.9 12.7 11.8 93 0.6 NNW 4 9 2 5 1026.1 1024.8 0.0
29/07:30am 10.5 10.5 9.7 95 0.4 CALM 0 2 0 1 1025.7 1024.5 0.0
29/07:00am 10.5 10.1 9.9 96 0.3 W 2 4 1 2 1025.3 1024.0 0.0
29/06:30am 11.9 11.9 11.2 95 0.4 NNW 2 7 1 4 1024.9 1023.6 0.0
29/06:00am 11.9 11.5 11.0 94 0.5 NNW 4 9 2 5 1024.6 1023.3 0.0
29/05:30am 9.8 9.3 9.4 97 0.2 NNW 2 6 1 3 1024.6 1023.3 0.0
29/05:00am 7.9 7.3 7.5 97 0.2 CALM 0 0 0 0 1024.7 1023.4 0.0
29/04:30am 7.5 6.8 7.1 97 0.2 CALM 0 2 0 1 1024.7 1023.4 0.0
29/04:00am 7.7 7.1 7.3 97 0.2 CALM 0 2 0 1 1024.7 1023.4 0.0
29/03:30am 7.5 6.8 7.1 97 0.2 CALM 0 0 0 0 1024.7 1023.4 0.0
29/03:00am 7.9 7.3 7.5 97 0.2 CALM 0 0 0 0 1024.8 1023.5 0.0
29/02:30am 7.9 7.3 7.5 97 0.2 CALM 0 0 0 0 1024.9 1023.6 0.0
29/02:00am 7.8 7.2 7.2 96 0.3 CALM 0 0 0 0 1025.0 1023.7 0.0
29/01:30am 7.7 7.0 7.1 96 0.3 CALM 0 0 0 0 1025.1 1023.8 0.0
29/01:00am 7.2 6.5 6.8 97 0.2 CALM 0 0 0 0 1025.5 1024.3 0.0
29/12:30am 7.1 6.4 6.9 99 0.1 CALM 0 0 0 0 1025.7 1024.5 0.0
29/12:00am 6.9 6.1 6.5 97 0.2 CALM 0 0 0 0 1025.6 1024.4 0.0
 
Date/Time
EST
Temp
°C
App
Temp
°C
Dew
Point
Rel
Hum
%
Delta-T
°C
Wind Press
QNH
hPa
Press
MSL
hPa
Rain
since 9 am
mm
Dir
 
Spd
km/h
Gust
km/h
Spd
kts
Gust
kts
28/11:30pm 7.2 6.0 6.6 96 0.3 ENE 2 2 1 1 1025.6 1024.4 0.0
28/11:00pm 7.7 6.6 7.1 96 0.3 NE 2 4 1 2 1025.6 1024.4 0.0
28/10:30pm 7.6 7.0 7.2 97 0.2 CALM 0 0 0 0 1026.1 1024.8 0.0
28/10:00pm 7.4 6.7 6.8 96 0.3 CALM 0 0 0 0 1026.1 1024.8 0.0
28/09:30pm 7.6 6.9 7.0 96 0.3 CALM 0 0 0 0 1026.2 1024.9 0.0
28/09:00pm 7.0 6.2 6.4 96 0.3 CALM 0 0 0 0 1026.2 1024.9 0.0
28/08:30pm 7.6 7.0 7.2 97 0.2 CALM 0 0 0 0 1026.1 1024.8 0.0
28/08:00pm 7.8 6.9 7.6 99 0.1 W 2 4 1 2 1026.3 1025.0 0.0
28/07:30pm 8.4 7.5 7.6 95 0.4 NE 2 2 1 1 1025.7 1024.5 0.0
28/07:00pm 9.0 8.5 7.8 92 0.6 CALM 0 0 0 0 1025.5 1024.3 0.0
28/06:30pm 9.8 9.4 8.4 91 0.7 CALM 0 0 0 0 1025.1 1023.8 0.0
28/06:00pm 11.3 10.7 8.8 84 1.3 N 2 4 1 2 1024.8 1023.5 0.0
28/05:30pm 12.0 11.7 8.5 79 1.8 CALM 0 0 0 0 1024.4 1023.2 0.0
28/05:00pm 14.7 14.0 8.6 67 3.2 W 2 4 1 2 1024.4 1023.2 0.0
28/04:30pm 16.5 15.2 7.7 56 4.6 WSW 4 7 2 4 1024.0 1022.7 0.0
28/04:00pm 18.2 16.9 6.1 45 6.2 WSW 2 7 1 4 1023.6 1022.3 0.0
28/03:30pm 18.6 17.1 6.7 46 6.2 NW 4 9 2 5 1023.7 1022.4 0.0
28/03:00pm 18.8 17.2 6.5 44 6.4 NNW 4 9 2 5 1023.9 1022.6 0.0
28/02:30pm 18.9 17.0 6.6 44 6.4 NW 6 9 3 5 1024.0 1022.7 0.0
28/02:00pm 18.0 15.8 6.1 45 6.1 W 7 13 4 7 1024.0 1022.7 0.0
28/01:30pm 18.4 16.5 6.9 47 6.0 NNW 6 9 3 5 1024.0 1022.7 0.0
28/01:00pm 17.8 15.8 7.1 49 5.6 W 7 15 4 8 1024.2 1022.9 0.0
28/12:30pm 17.2 15.9 7.5 53 5.1 W 4 9 2 5 1024.7 1023.4 0.0
28/12:00pm 17.0 15.3 5.7 47 5.7 WNW 4 9 2 5 1025.2 1023.9 0.0
28/11:30am 17.1 15.5 7.8 54 4.9 W 6 9 3 5 1026.0 1024.7 0.0
28/11:00am 16.4 14.9 6.9 53 4.9 W 4 6 2 3 1026.4 1025.1 0.0
28/10:30am 15.7 14.4 9.2 65 3.5 NNW 6 11 3 6 1026.5 1025.3 0.0
28/10:00am 15.3 14.0 9.3 67 3.2 NNW 6 9 3 5 1026.8 1025.6 0.0
28/09:30am 14.3 13.8 10.6 78 2.0 NW 4 7 2 4 1026.6 1025.4 0.0
28/09:00am 12.9 13.2 10.9 88 1.1 CALM 0 0 0 0 1026.6 1025.4 0.0
28/08:30am 9.8 9.6 9.2 96 0.3 CALM 0 0 0 0 1026.6 1025.4 0.0
28/08:00am 7.0 6.2 6.6 97 0.2 CALM 0 0 0 0 1026.8 1025.6 0.0
28/07:30am 4.5 3.1 3.8 95 0.3 CALM 0 0 0 0 1026.3 1025.0 0.0
28/07:00am 3.5 2.0 2.8 95 0.3 CALM 0 0 0 0 1025.7 1024.5 0.0
28/06:30am 2.9 1.4 2.9 100 0.0 CALM 0 0 0 0 1025.4 1024.1 0.0
28/06:00am 3.1 1.2 2.9 99 0.1 NE 2 2 1 1 1025.2 1023.9 0.0
28/05:30am 3.6 2.2 3.4 99 0.1 CALM 0 0 0 0 1024.9 1023.6 0.0
28/05:00am 3.7 1.6 3.7 100 0.0 NNE 4 4 2 2 1024.2 1022.9 0.0
28/04:30am 3.3 1.9 3.3 100 0.0 CALM 0 0 0 0 1024.2 1022.9 0.0
28/04:00am 4.1 2.8 4.1 100 0.0 CALM 0 0 0 0 1024.2 1022.9 0.0
28/03:30am 4.2 2.9 4.2 100 0.0 CALM 0 0 0 0 1024.8 1023.5 0.0
28/03:00am 4.5 3.3 4.5 100 0.0 CALM 0 0 0 0 1024.9 1023.6 0.0
28/02:30am 5.2 4.1 5.0 99 0.1 CALM 0 0 0 0 1024.6 1023.3 0.0
28/02:00am 4.8 3.6 4.4 97 0.2 CALM 0 0 0 0 1024.7 1023.4 0.0
28/01:30am 5.1 3.5 4.7 97 0.2 NE 2 4 1 2 1024.9 1023.6 0.0
28/01:00am 5.0 3.1 4.8 99 0.1 NE 4 4 2 2 1024.8 1023.5 0.0
28/12:30am 5.2 3.3 5.0 99 0.1 NE 4 4 2 2 1025.0 1023.7 0.0
28/12:00am 5.6 4.5 5.2 97 0.2 CALM 0 0 0 0 1025.4 1024.1 0.0
 
Date/Time
EST
Temp
°C
App
Temp
°C
Dew
Point
Rel
Hum
%
Delta-T
°C
Wind Press
QNH
hPa
Press
MSL
hPa
Rain
since 9 am
mm
Dir
 
Spd
km/h
Gust
km/h
Spd
kts
Gust
kts
27/11:30pm 6.2 5.2 5.8 97 0.2 CALM 0 0 0 0 1025.6 1024.4 0.0
27/11:00pm 6.8 5.9 6.2 96 0.3 CALM 0 0 0 0 1025.6 1024.4 0.0
27/10:30pm 6.9 6.1 6.7 99 0.1 CALM 0 0 0 0 1025.3 1024.0 0.0
27/10:00pm 6.7 5.9 6.3 97 0.2 CALM 0 0 0 0 1025.1 1023.8 0.0
27/09:30pm 6.7 5.5 6.3 97 0.2 NE 2 2 1 1 1025.2 1023.9 0.0
27/09:00pm 6.2 5.3 6.2 100 0.0 CALM 0 2 0 1 1025.0 1023.7 0.0
27/08:30pm 6.9 6.2 6.9 100 0.0 CALM 0 2 0 1 1025.3 1024.0 0.0
27/08:00pm 7.3 6.6 6.9 97 0.2 CALM 0 0 0 0 1025.2 1023.9 0.0
27/07:30pm 8.1 7.5 7.5 96 0.3 CALM 0 0 0 0 1025.1 1023.8 0.0
27/07:00pm 9.1 8.7 8.3 95 0.4 CALM 0 0 0 0 1025.0 1023.7 0.0
27/06:30pm 9.8 9.4 8.4 91 0.7 CALM 0 0 0 0 1024.8 1023.5 0.0
27/06:00pm 11.1 10.9 9.0 87 1.1 CALM 0 0 0 0 1024.4 1023.2 0.0
27/05:30pm 13.2 13.0 9.2 77 2.1 CALM 0 0 0 0 1024.3 1023.0 0.0
27/05:00pm 13.9 13.8 9.4 74 2.4 CALM 0 2 0 1 1024.1 1022.8 0.0
27/04:30pm 14.9 14.4 7.8 62 3.7 CALM 0 6 0 3 1024.0 1022.7 0.0

Other Formats:

Comma delimited format used in spreadsheet applications
http://www.bom.gov.au/fwo/IDN60801/IDN60801.94553.axf

JavaScript Object Notation format (JSON) in row-major order
http://www.bom.gov.au/fwo/IDN60801/IDN60801.94553.json